Time;durP1;ratioP1;P1;durP2;ratioP2;P2;SDS_P1;SDS_P2;PMS_P1;PMS_P2;Temp;Humidity;BMP_temperature;BMP_pressure;BME280_temperature;BME280_humidity;BME280_pressure;Samples;Min_cycle;Max_cycle;Signal;HPM_P1;HPM_P2
2022/08/06 00:43:44;;;;;;;5.05;4.75;;;;;;;21.47;100.00;99626.42;1799938;77;23160;-52
2022/08/06 00:46:10;;;;;;;5.00;4.70;;;;;;;21.17;100.00;99629.33;1769251;80;21444;-52
2022/08/06 00:48:36;;;;;;;6.03;5.45;;;;;;;20.98;100.00;99626.05;1769471;79;21303;-52
2022/08/06 00:51:03;;;;;;;5.10;4.80;;;;;;;20.83;100.00;99630.72;1768415;78;20989;-52
2022/08/06 00:53:30;;;;;;;6.00;5.60;;;;;;;20.71;100.00;99632.70;1771090;79;21512;-53
2022/08/06 00:55:56;;;;;;;5.65;5.25;;;;;;;20.62;100.00;99632.17;1772476;79;22195;-52
2022/08/06 00:58:23;;;;;;;5.80;5.53;;;;;;;20.52;100.00;99629.91;1749388;79;21413;-52
2022/08/06 01:00:50;;;;;;;5.97;5.65;;;;;;;20.47;100.00;99639.05;1680880;83;21180;-53
2022/08/06 01:03:17;;;;;;;7.05;6.37;;;;;;;20.40;100.00;99642.84;1685210;84;21488;-52
2022/08/06 01:05:44;;;;;;;7.45;6.30;;;;;;;20.34;100.00;99635.17;1747248;80;20938;-52
2022/08/06 01:08:11;;;;;;;6.85;6.15;;;;;;;20.29;100.00;99641.05;1741416;80;21421;-52
2022/08/06 01:10:38;;;;;;;6.85;6.17;;;;;;;20.24;100.00;99642.47;1744611;80;21075;-52
2022/08/06 01:13:05;;;;;;;6.37;5.97;;;;;;;20.18;100.00;99642.99;1743187;80;21156;-52
2022/08/06 01:15:32;;;;;;;6.35;5.95;;;;;;;20.14;100.00;99638.33;1742615;80;21133;-52
2022/08/06 01:18:04;;;;;;;7.45;6.90;;;;;;;20.10;100.00;99642.31;1738746;80;21044;-52
2022/08/06 01:21:10;;;;;;;7.15;6.47;;;;;;;20.06;100.00;99641.38;1743274;80;21071;-50
2022/08/06 01:23:58;;;;;;;6.90;6.35;;;;;;;20.03;100.00;99645.23;1741851;81;21072;-50
2022/08/06 01:26:53;;;;;;;5.75;5.40;;;;;;;20.00;100.00;99644.13;1740926;81;21544;-49
2022/08/06 01:29:28;;;;;;;7.12;6.60;;;;;;;19.97;100.00;99652.13;1742112;80;21081;-50
2022/08/06 01:33:02;;;;;;;6.78;6.18;;;;;;;19.96;100.00;99650.89;1439632;83;985002;-51
2022/08/06 01:35:32;;;;;;;6.60;6.10;;;;;;;19.96;100.00;99650.89;1577096;84;974985;-52
2022/08/06 01:38:02;;;;;;;7.30;6.70;;;;;;;19.91;100.00;99653.14;1684366;83;22286;-52
2022/08/06 01:40:32;;;;;;;6.20;5.67;;;;;;;19.87;100.00;99654.42;1682147;84;21176;-49
2022/08/06 01:42:59;;;;;;;4.97;4.67;;;;;;;19.86;100.00;99648.09;1729513;80;21678;-53
2022/08/06 01:45:28;;;;;;;6.97;5.15;;;;;;;19.85;100.00;99646.86;1712717;82;21042;-50
2022/08/06 01:47:58;;;;;;;5.75;5.45;;;;;;;19.83;100.00;99646.99;1686752;82;21101;-50
2022/08/06 01:50:32;;;;;;;6.17;5.00;;;;;;;19.82;100.00;99647.98;1717317;82;21081;-50
2022/08/06 01:53:00;;;;;;;6.30;5.90;;;;;;;19.78;100.00;99643.81;1648782;85;21833;-50
2022/08/06 01:55:33;;;;;;;8.30;5.17;;;;;;;19.76;100.00;99646.30;1714189;82;21067;-53
2022/08/06 01:58:01;;;;;;;5.58;4.97;;;;;;;19.74;100.00;99661.45;1710537;82;21014;-51
2022/08/06 02:00:28;;;;;;;5.00;4.60;;;;;;;19.71;100.00;99654.91;1647017;85;21772;-51
2022/08/06 02:02:54;;;;;;;6.35;5.58;;;;;;;19.70;100.00;99650.95;1706735;82;21005;-49
2022/08/06 02:05:21;;;;;;;6.17;5.50;;;;;;;19.72;100.00;99651.69;1707042;82;21541;-51
2022/08/06 02:07:50;;;;;;;6.62;6.22;;;;;;;19.68;100.00;99648.34;1708865;82;22302;-53
2022/08/06 02:10:17;;;;;;;5.95;5.65;;;;;;;19.67;100.00;99653.44;1712721;82;21115;-51
2022/08/06 02:12:44;;;;;;;7.73;6.13;;;;;;;19.67;100.00;99648.47;1678891;82;892563;-51
2022/08/06 02:15:18;;;;;;;6.05;5.50;;;;;;;19.67;100.00;99656.16;1711646;82;21486;-50
2022/08/06 02:18:43;;;;;;;5.92;5.42;;;;;;;19.63;100.00;99654.22;1666681;82;902064;-50
2022/08/06 02:23:01;;;;;;;6.28;5.97;;;;;;;19.63;100.00;99654.22;1503722;82;975075;-52
2022/08/06 06:42:40;;;;;;;5.93;5.43;;;;;;;19.63;100.00;99654.22;1563714;82;985173;-51
2022/08/06 06:45:13;;;;;;;4.47;2.55;;;;;;;19.63;100.00;99654.22;1732034;80;21007;-51
2022/08/06 06:48:02;;;;;;;2.67;1.70;;;;;;;23.44;100.00;99724.41;1723538;80;564945;-51
2022/08/06 06:50:32;;;;;;;2.35;1.92;;;;;;;23.46;100.00;99732.49;1731994;81;21249;-52
2022/08/06 06:52:59;;;;;;;4.95;2.65;;;;;;;23.50;100.00;99727.05;1722232;80;21157;-52
2022/08/06 06:55:38;;;;;;;2.27;2.08;;;;;;;23.53;100.00;99724.88;1726186;81;21682;-51
2022/08/06 06:58:13;;;;;;;7.92;2.45;;;;;;;23.56;100.00;99725.08;1723863;81;21603;-51
2022/08/06 07:00:41;;;;;;;3.00;2.40;;;;;;;23.63;100.00;99725.66;1717457;82;21057;-50
2022/08/06 07:03:07;;;;;;;3.45;2.40;;;;;;;23.71;100.00;99724.87;1726341;82;21648;-53
2022/08/06 07:05:35;;;;;;;2.20;2.05;;;;;;;23.80;100.00;99718.93;1723124;82;21069;-53
2022/08/06 07:08:03;;;;;;;4.22;2.02;;;;;;;23.89;100.00;99723.47;1727454;82;21120;-51
2022/08/06 07:10:30;;;;;;;2.30;2.10;;;;;;;23.95;100.00;99720.94;1705170;80;975257;-49
2022/08/06 07:12:59;;;;;;;1.75;1.65;;;;;;;23.99;100.00;99716.83;1671953;82;975564;-51
2022/08/06 08:53:51;;;;;;;2.85;2.30;;;;;;;24.09;100.00;99712.10;1677367;75;975286;-53
2022/08/06 08:56:18;;;;;;;2.55;2.40;;;;;;;24.09;100.00;99712.10;1754305;80;21465;-52
2022/08/06 08:58:45;;;;;;;4.30;2.83;;;;;;;26.16;100.00;99705.91;1755955;80;21439;-53
2022/08/06 09:01:11;;;;;;;2.70;2.50;;;;;;;26.17;100.00;99704.02;1755290;80;20946;-52
2022/08/06 09:03:39;;;;;;;1.85;1.75;;;;;;;26.18;100.00;99707.12;1757493;80;21057;-53
2022/08/06 09:06:06;;;;;;;2.55;2.40;;;;;;;26.20;100.00;99700.92;1752851;80;21145;-53
2022/08/06 09:08:33;;;;;;;2.98;2.67;;;;;;;26.24;100.00;99696.76;1755047;80;21103;-52
2022/08/06 09:11:00;;;;;;;2.40;2.22;;;;;;;26.29;100.00;99706.25;1721038;81;21089;-54
2022/08/06 09:13:27;;;;;;;2.20;2.10;;;;;;;26.33;100.00;99701.26;1753485;80;21068;-52
2022/08/06 09:15:54;;;;;;;2.95;2.45;;;;;;;26.39;100.00;99706.06;1755763;80;21027;-53
2022/08/06 09:18:20;;;;;;;3.42;3.22;;;;;;;26.47;100.00;99716.22;1719115;81;21211;-53
2022/08/06 09:20:48;;;;;;;1.85;1.75;;;;;;;26.53;100.00;99712.77;1727882;81;21100;-52
2022/08/06 09:23:18;;;;;;;3.08;1.80;;;;;;;26.57;100.00;99714.13;1745506;80;21510;-53
2022/08/06 09:25:52;;;;;;;2.12;2.02;;;;;;;26.64;100.00;99702.70;1752843;80;21036;-55
2022/08/06 09:28:41;;;;;;;3.10;2.10;;;;;;;26.71;100.00;99705.13;1724965;81;21089;-54
2022/08/06 09:31:12;;;;;;;3.92;2.65;;;;;;;26.80;100.00;99710.06;1761876;80;21122;-52
2022/08/06 09:33:46;;;;;;;4.22;1.85;;;;;;;26.87;100.00;99706.44;1721308;81;21049;-53
2022/08/06 09:36:13;;;;;;;2.60;1.98;;;;;;;26.94;100.00;99703.33;1746800;80;21103;-53
2022/08/06 09:38:59;;;;;;;2.30;2.08;;;;;;;27.00;100.00;99701.22;1752515;80;21086;-53
2022/08/06 09:41:29;;;;;;;2.87;2.67;;;;;;;27.02;100.00;99697.77;1722274;81;21532;-52
2022/08/06 09:43:57;;;;;;;2.27;2.17;;;;;;;27.01;100.00;99699.31;1722075;82;21183;-52
2022/08/06 09:46:57;;;;;;;2.85;1.90;;;;;;;26.98;100.00;99704.67;1721220;82;21059;-53
2022/08/06 09:49:24;;;;;;;2.47;2.27;;;;;;;26.98;100.00;99704.67;1683815;80;975355;-53
2022/08/06 09:51:50;;;;;;;2.22;2.02;;;;;;;27.09;100.00;99706.18;1723950;81;21634;-53
2022/08/06 09:54:16;;;;;;;3.02;2.17;;;;;;;27.09;100.00;99703.42;1756798;80;22048;-53
2022/08/06 09:56:43;;;;;;;1.95;1.75;;;;;;;27.13;100.00;99712.22;1730053;81;21449;-55
2022/08/06 09:59:11;;;;;;;2.00;1.90;;;;;;;27.18;100.00;99708.38;1742940;80;21084;-52
2022/08/06 10:01:46;;;;;;;2.20;1.87;;;;;;;27.25;100.00;99707.98;1749892;80;21121;-53
2022/08/06 10:04:26;;;;;;;4.83;2.75;;;;;;;27.28;100.00;99712.64;1752134;80;20976;-53
2022/08/06 10:06:58;;;;;;;2.40;2.00;;;;;;;27.32;100.00;99707.07;1517532;80;977268;-53
2022/08/06 10:09:27;;;;;;;2.37;2.20;;;;;;;27.50;100.00;99706.78;1749960;80;21087;-53
2022/08/06 10:11:54;;;;;;;2.05;1.95;;;;;;;27.46;100.00;99704.93;1748012;80;21219;-53
2022/08/06 10:14:25;;;;;;;2.50;2.30;;;;;;;27.53;100.00;99700.90;1681412;80;985090;-53
2022/08/06 10:17:13;;;;;;;2.02;1.92;;;;;;;27.66;100.00;99701.16;1493676;81;984894;-52
2022/08/06 10:37:07;;;;;;;4.60;3.60;;;;;;;27.78;100.00;99698.31;1507493;80;985170;-56
